Flight Track Log - Related Links

Times and Time Zones

All times are in EDT time to prevent confusion due to time zone crossing. See the N828AW flight status page for this flight to view local times or setup timezone preferences in your user account.

Time Position Orientation Groundspeed Altitude Reporting Facility
EDT Latitude Longitude Course Direction KTS MPH feet Rate Location/Type
Mon 07:01:57 PM 44.8847 -93.3053 235° Southwest 182 209 3,400  Level Minneapolis Center
Mon 07:02:59 PM 44.8458 -93.3675 229° Southwest 250 288 5,800 2,323 Climbing Minneapolis Center
Mon 07:04:01 PM 44.7764 -93.4036 200° South 271 312 8,200 2,565 Climbing Minneapolis Center
Mon 07:05:00 PM 44.5603 -93.8460 235° Southwest  Level FlightAware Approximate
Mon 07:05:03 PM 44.7092 -93.4967 225° Southwest 304 350 11,100  Level Minneapolis Center
Mon 07:06:00 PM 44.4949 -93.9770 235° Southwest  Level FlightAware Approximate
Mon 07:06:06 PM 44.6583 -93.6133 239° Southwest 355 409 13,400  Level Minneapolis Center
Mon 07:07:00 PM 44.4288 -94.1090 235° Southwest  Level FlightAware Approximate
Mon 07:07:08 PM 44.6044 -93.7369 239° Southwest 373 429 15,600  Level Minneapolis Center
Mon 07:09:12 PM 44.4894 -93.9992 238° Southwest 397 457 20,000 1,960 Climbing Minneapolis Center
Mon 07:11:16 PM 44.3425 -94.2936 235° Southwest 422 486 23,700 1,613 Climbing Minneapolis Center
Mon 07:12:18 PM 44.2733 -94.4336 235° Southwest 434 499 25,000 1,258 Climbing Minneapolis Center
Mon 07:13:20 PM 44.2017 -94.5756 235° Southwest 445 512 26,300 1,210 Climbing Minneapolis Center
Mon 07:14:22 PM 44.1300 -94.7208 236° Southwest 453 521 27,500 1,340 Climbing Minneapolis Center
Mon 07:16:00 PM 44.0034 -94.9165 230° Southwest  Level FlightAware Approximate
Mon 07:18:29 PM 43.8197 -95.3253 235° Southwest 445 512 33,200  Level Minneapolis Center
Mon 07:19:31 PM 43.7472 -95.4644 234° Southwest 445 512 34,200 1,113 Climbing Minneapolis Center
Mon 07:20:33 PM 43.6744 -95.6031 234° Southwest 445 512 35,500 968 Climbing Minneapolis Center
Mon 07:21:35 PM 43.6028 -95.7414 234° Southwest 442 509 36,200 778 Climbing Minneapolis Center
Mon 07:23:00 PM 43.4997 -95.9174 235° Southwest  Level FlightAware Approximate
Mon 07:23:00 PM 43.5417 -95.8335 236° Southwest  Level FlightAware Approximate
Mon 07:23:38 PM 43.4436 -96.0442 235° Southwest 443 510 37,900  Level Minneapolis Center
Mon 07:24:00 PM 43.4761 -95.9645 235° Southwest  Level FlightAware Approximate
Mon 07:24:40 PM 43.3706 -96.1814 234° Southwest 445 512 38,000  Level Minneapolis Center
Mon 07:26:00 PM 43.2709 -96.3426 230° Southwest  Level FlightAware Approximate
Mon 07:26:43 PM 43.2381 -96.4300 230° Southwest 447 514 38,000  Level Minneapolis Center
Mon 07:27:45 PM 43.1503 -96.5933 234° Southwest 443 510 38,000  Level Minneapolis Center
Mon 07:28:47 PM 43.0764 -96.7300 234° Southwest 446 513 38,000  Level Minneapolis Center
Mon 07:29:49 PM 43.0039 -96.8656 234° Southwest 443 510 38,000  Level Minneapolis Center
Mon 07:31:00 PM 42.9201 -97.0130 232° Southwest  Level FlightAware Approximate
Mon 07:31:52 PM 42.8414 -97.1622 232° Southwest 445 512 38,000  Level Minneapolis Center
Mon 07:34:11 PM 42.6769 -97.4597 233° Southwest 447 514 38,000  Level Denver Center
Mon 07:34:57 PM 42.6125 -97.5750 233° Southwest 451 519 38,000  Level Minneapolis Center
Mon 07:38:00 PM 42.4807 -97.7829 229° Southwest  Level FlightAware Approximate
Mon 07:39:21 PM 42.2881 -98.1497 233° Southwest 453 521 38,000  Level Denver Center
Mon 07:40:23 PM 42.1972 -98.3097 233° Southwest 450 518 38,000  Level Denver Center
Mon 07:42:09 PM 42.0767 -98.5225 233° Southwest 448 516 38,000  Level Minneapolis Center
Mon 07:44:13 PM 41.9094 -98.8131 232° Southwest 448 516 38,000  Level Minneapolis Center
Mon 07:45:00 PM 41.9832 -98.6438 233° Southwest  Level FlightAware Approximate
Mon 07:45:15 PM 41.8347 -98.9425 232° Southwest 443 510 38,000  Level Minneapolis Center
Mon 07:46:16 PM 41.7581 -99.0711 231° Southwest 442 509 38,000  Level Minneapolis Center
Mon 07:47:18 PM 41.6836 -99.2006 232° Southwest 442 509 38,000  Level Minneapolis Center
Mon 07:47:37 PM 41.6531 -99.2522 232° Southwest 442 509 38,000  Level Denver Center
Mon 07:50:00 PM 41.5332 -99.4535 232° Southwest  Level FlightAware Approximate
Mon 07:50:43 PM 41.4258 -99.6364 232° Southwest 442 509 38,000  Level Denver Center
Mon 07:51:45 PM 41.3450 -99.7697 231° Southwest 441 507 38,000  Level Denver Center
Mon 07:52:47 PM 41.2600 -99.9128 232° Southwest 441 507 38,000  Level Denver Center
Mon 07:53:49 PM 41.1878 -100.0333 232° Southwest 437 503 38,000  Level Denver Center
Mon 07:54:51 PM 41.1031 -100.1717 231° Southwest 433 498 38,000  Level Denver Center
Mon 07:57:00 PM 41.0115 -100.3196 231° Southwest  Level FlightAware Approximate
Mon 07:57:49 PM 40.8819 -100.5358 231° Southwest 433 498 38,000  Level Minneapolis Center
Mon 07:58:59 PM 40.7908 -100.6819 231° Southwest 430 495 38,000  Level Denver Center
Mon 08:00:00 PM 40.7045 -100.8151 229° Southwest  Level FlightAware Approximate
Mon 08:01:03 PM 40.6383 -100.9278 229° Southwest 436 502 38,000  Level Denver Center
Mon 08:03:07 PM 40.4781 -101.1856 231° Southwest 438 504 38,000  Level Denver Center
Mon 08:04:09 PM 40.3928 -101.3214 231° Southwest 433 498 38,000  Level Denver Center
Mon 08:05:11 PM 40.3186 -101.4375 230° Southwest 434 499 38,000  Level Denver Center
Mon 08:06:13 PM 40.2444 -101.5542 230° Southwest 434 499 38,000  Level Denver Center
Mon 08:07:15 PM 40.1578 -101.6908 230° Southwest 435 501 38,000  Level Denver Center
Mon 08:08:17 PM 40.0833 -101.8064 230° Southwest 435 501 38,000  Level Denver Center
Mon 08:09:19 PM 39.9975 -101.9425 231° Southwest 434 499 38,000  Level Denver Center
Mon 08:11:00 PM 39.8663 -102.1295 228° Southwest  Level FlightAware Approximate
Mon 08:11:23 PM 39.8367 -102.1900 228° Southwest 433 498 38,000  Level Denver Center
Mon 08:12:25 PM 39.7631 -102.3042 230° Southwest 432 497 38,000  Level Denver Center
Mon 08:13:26 PM 39.7014 -102.4000 230° Southwest 433 498 38,000  Level Denver Center
Mon 08:15:31 PM 39.5219 -102.6742 230° Southwest 438 504 38,000  Level Denver Center
Mon 08:16:32 PM 39.4414 -102.7969 230° Southwest 442 509 38,000  Level Denver Center
Mon 08:17:34 PM 39.3472 -102.9381 229° Southwest 440 506 38,000  Level Denver Center
Mon 08:19:00 PM 39.2315 -103.0938 229° Southwest  Level FlightAware Approximate
Mon 08:19:38 PM 39.1869 -103.1800 229° Southwest 439 505 38,000  Level Denver Center
Mon 08:20:40 PM 39.1056 -103.3011 229° Southwest 442 509 38,000  Level Denver Center
Mon 08:21:42 PM 39.0242 -103.4222 229° Southwest 443 510 38,000  Level Denver Center
Mon 08:22:43 PM 38.9419 -103.5428 229° Southwest 443 510 38,000  Level Denver Center
Mon 08:23:45 PM 38.8606 -103.6631 229° Southwest 442 509 38,000  Level Denver Center
Mon 08:25:00 PM 38.7600 -103.7978 226° Southwest  Level FlightAware Approximate
Mon 08:27:52 PM 38.5344 -104.1383 229° Southwest 438 504 38,000  Level Denver Center
Mon 08:28:54 PM 38.4408 -104.2742 229° Southwest 433 498 38,000  Level Denver Center
Mon 08:29:56 PM 38.3606 -104.3917 229° Southwest 436 502 38,000  Level Denver Center
Mon 08:30:58 PM 38.2817 -104.5047 228° Southwest 435 501 38,000  Level Denver Center
Mon 08:31:59 PM 38.2047 -104.6158 229° Southwest 438 504 38,000  Level Denver Center
Mon 08:32:00 PM 38.2164 -104.5719 229° Southwest  Level FlightAware Approximate
Mon 08:33:00 PM 38.1398 -104.6832 229° Southwest  Level FlightAware Approximate
Mon 08:34:03 PM 38.0386 -104.8519 228° Southwest 434 499 38,000  Level Denver Center
Mon 08:35:05 PM 37.9489 -104.9786 228° Southwest 434 499 38,000  Level Denver Center
Mon 08:36:06 PM 37.8717 -105.0869 228° Southwest 433 498 38,000  Level Denver Center
Mon 08:37:08 PM 37.7806 -105.2147 228° Southwest 439 505 38,000  Level Denver Center
Mon 08:38:10 PM 37.7033 -105.3222 228° Southwest 435 501 38,000  Level Denver Center
Mon 08:40:13 PM 37.5369 -105.5539 228° Southwest 432 497 38,000  Level Denver Center
Mon 08:41:15 PM 37.4481 -105.6778 228° Southwest 428 493 38,000  Level Denver Center
Mon 08:42:17 PM 37.3700 -105.7839 227° Southwest 430 495 38,000  Level Denver Center
Mon 08:43:19 PM 37.2972 -105.8983 231° Southwest 434 499 38,000  Level Denver Center
Mon 08:45:22 PM 37.1497 -106.1514 234° Southwest 436 502 38,000  Level Denver Center
Mon 08:46:24 PM 37.0689 -106.2850 233° Southwest 431 496 38,000  Level Denver Center
Mon 08:48:27 PM 36.9442 -106.4981 234° Southwest 433 498 38,000  Level Denver Center
Mon 08:49:29 PM 36.8531 -106.6494 233° Southwest 428 493 38,000  Level Denver Center
Mon 08:51:32 PM 36.7044 -106.8961 233° Southwest 428 493 38,000  Level Denver Center
Mon 08:52:34 PM 36.6358 -107.0089 233° Southwest 428 493 38,000 -645 Level Denver Center
Mon 08:54:38 PM 36.4911 -107.2469 233° Southwest 414 476 36,000 -463 Descending Denver Center
Mon 08:56:53 PM 36.3364 -107.5022 233° Southwest 412 474 36,000  Level Albuquerque Center
Mon 08:57:54 PM 36.2589 -107.6278 233° Southwest 410 472 36,000  Level Albuquerque Center
Mon 08:58:56 PM 36.1942 -107.7333 233° Southwest 405 466 36,000  Level Albuquerque Center
Mon 08:59:58 PM 36.1178 -107.8569 233° Southwest 404 465 36,000  Level Albuquerque Center
Mon 09:00:59 PM 36.0533 -107.9589 232° Southwest 397 457 36,000  Level Albuquerque Center
Mon 09:02:01 PM 35.9897 -108.0617 233° Southwest 394 453 36,000  Level Albuquerque Center
Mon 09:03:53 PM 35.8625 -108.2628 232° Southwest 389 448 36,000  Level Denver Center
Mon 09:05:05 PM 35.7889 -108.3817 233° Southwest 388 447 36,000  Level Albuquerque Center
Mon 09:06:00 PM 35.7093 -108.5021 231° Southwest  Level FlightAware Approximate
Mon 09:07:07 PM 35.6519 -108.5986 231° Southwest 385 443 36,000  Level Albuquerque Center
Mon 09:08:09 PM 35.5778 -108.7153 232° Southwest 385 443 36,000  Level Albuquerque Center
Mon 09:09:10 PM 35.5147 -108.8142 232° Southwest 384 442 36,000  Level Albuquerque Center
Mon 09:10:11 PM 35.4486 -108.9119 230° Southwest 386 444 36,000  Level Albuquerque Center
Mon 09:12:00 PM 35.3015 -109.0980 226° Southwest  Level FlightAware Approximate
Mon 09:13:15 PM 35.2244 -109.2008 226° Southwest 388 447 36,000  Level Albuquerque Center
Mon 09:14:16 PM 35.1408 -109.3069 226° Southwest 388 447 36,000  Level Albuquerque Center
Mon 09:16:19 PM 34.9853 -109.5044 226° Southwest 387 445 36,000  Level Albuquerque Center
Mon 09:17:20 PM 34.9128 -109.5944 226° Southwest 388 447 36,000  Level Albuquerque Center
Mon 09:18:22 PM 34.8414 -109.6858 226° Southwest 389 448 36,000  Level Albuquerque Center
Mon 09:19:23 PM 34.7572 -109.7944 227° Southwest 393 452 36,000  Level Albuquerque Center
Mon 09:20:24 PM 34.6964 -109.8928 233° Southwest 384 442 36,000  Level Albuquerque Center
Mon 09:21:25 PM 34.6536 -110.0014 244° Southwest 375 432 36,000 -98 Level Albuquerque Center
Mon 09:22:26 PM 34.6086 -110.1331 247° West 376 433 35,800 -735 Descending Albuquerque Center
Mon 09:24:00 PM 34.5225 -110.3282 242° Southwest  Level FlightAware Approximate
Mon 09:25:30 PM 34.5181 -110.5033 242° Southwest 400 460 33,000  Level Albuquerque Center
Mon 09:26:32 PM 34.5156 -110.6331 269° West 392 451 31,800 -1,122 Descending Albuquerque Center
Mon 09:27:33 PM 34.5097 -110.7611 267° West 386 444 30,700 -2,348 Descending Albuquerque Center
Mon 09:29:00 PM 34.3895 -110.9033 225° Southwest  Level Estimated
Mon 09:29:36 PM 34.3667 -110.9275 225° Southwest 369 425 24,600  Level Albuquerque Center
Mon 09:31:00 PM 34.2194 -111.0096 205° Southwest  Level FlightAware Approximate
Mon 09:31:38 PM 34.1972 -111.0389 205° Southwest 345 397 20,000  Level Albuquerque Center
Mon 09:32:40 PM 34.1208 -111.0936 211° Southwest 327 376 18,300 -1,756 Descending Albuquerque Center
Mon 09:33:41 PM 34.0647 -111.1686 228° Southwest 307 353 16,400 -1,922 Descending Albuquerque Center
Mon 09:35:13 PM 33.9667 -111.2833 224° Southwest 292 336 13,400 -1,869 Descending Phoenix TRACON
Mon 09:35:43 PM 33.9431 -111.3275 237° Southwest 291 335 12,600 -1,304 Descending Albuquerque Center
Mon 09:36:45 PM 33.8875 -111.3983 227° Southwest 290 334 11,400 -1,171 Descending Albuquerque Center
Mon 09:37:46 PM 33.8294 -111.4500 216° Southwest 263 303 10,200 -1,180 Descending Albuquerque Center
Mon 09:38:47 PM 33.7719 -111.4989 215° Southwest 253 291 9,000 -1,073 Descending Albuquerque Center
Mon 09:39:49 PM 33.7161 -111.5472 216° Southwest 248 285 8,000 -488 Descending Albuquerque Center
Mon 09:40:50 PM 33.6622 -111.5942 216° Southwest 242 278 8,000 -246 Level Albuquerque Center
Mon 09:41:51 PM 33.6111 -111.6369 215° Southwest 228 262 7,500 -1,366 Descending Albuquerque Center
Mon 09:42:53 PM 33.5586 -111.6800 214° Southwest 227 261 5,200 -1,220 Descending Albuquerque Center
Mon 09:43:54 PM 33.5069 -111.7231 215° Southwest 227 261 5,000 -393 Descending Albuquerque Center
Mon 09:44:55 PM 33.4725 -111.7767 232° Southwest 218 251 4,400 -787 Descending Albuquerque Center
Mon 09:45:56 PM 33.4492 -111.8297 242° Southwest 196 226 3,400 -984 Descending Albuquerque Center

Login

Don't have an account? Register now (free) for customized features, flight alerts, and more!